sensor_id;sensor_type;location;lat;lon;timestamp;P1;durP1;ratioP1;P2;durP2;ratioP2
20336;SDS011;10326;53.660;10.200;2022-08-19T00:00:51;15.13;;;13.60;;
20336;SDS011;10326;53.660;10.200;2022-08-19T00:03:18;13.38;;;12.00;;
20336;SDS011;10326;53.660;10.200;2022-08-19T00:05:45;13.90;;;12.13;;
20336;SDS011;10326;53.660;10.200;2022-08-19T00:08:12;13.98;;;12.57;;
20336;SDS011;10326;53.660;10.200;2022-08-19T00:10:39;14.15;;;12.50;;
20336;SDS011;10326;53.660;10.200;2022-08-19T00:13:08;14.63;;;13.15;;
20336;SDS011;10326;53.660;10.200;2022-08-19T00:15:35;13.93;;;12.52;;
20336;SDS011;10326;53.660;10.200;2022-08-19T00:18:03;15.57;;;13.73;;
20336;SDS011;10326;53.660;10.200;2022-08-19T00:20:30;14.02;;;12.65;;
20336;SDS011;10326;53.660;10.200;2022-08-19T00:22:57;16.00;;;14.27;;
20336;SDS011;10326;53.660;10.200;2022-08-19T00:25:24;16.17;;;14.57;;
20336;SDS011;10326;53.660;10.200;2022-08-19T00:27:51;18.63;;;15.13;;
20336;SDS011;10326;53.660;10.200;2022-08-19T00:30:19;15.55;;;14.10;;
20336;SDS011;10326;53.660;10.200;2022-08-19T00:32:46;17.88;;;15.95;;
20336;SDS011;10326;53.660;10.200;2022-08-19T00:35:14;17.98;;;16.08;;
20336;SDS011;10326;53.660;10.200;2022-08-19T00:37:42;18.25;;;16.00;;
20336;SDS011;10326;53.660;10.200;2022-08-19T00:40:10;17.70;;;15.80;;
20336;SDS011;10326;53.660;10.200;2022-08-19T00:42:39;18.70;;;16.23;;
20336;SDS011;10326;53.660;10.200;2022-08-19T00:45:09;19.83;;;16.25;;
20336;SDS011;10326;53.660;10.200;2022-08-19T00:47:41;17.65;;;15.65;;
20336;SDS011;10326;53.660;10.200;2022-08-19T00:50:09;19.67;;;16.67;;
20336;SDS011;10326;53.660;10.200;2022-08-19T00:52:38;20.75;;;16.52;;
20336;SDS011;10326;53.660;10.200;2022-08-19T00:55:09;17.10;;;15.50;;
20336;SDS011;10326;53.660;10.200;2022-08-19T00:57:40;17.60;;;15.70;;
20336;SDS011;10326;53.660;10.200;2022-08-19T01:00:13;17.25;;;15.40;;
20336;SDS011;10326;53.660;10.200;2022-08-19T01:02:44;16.30;;;14.63;;
20336;SDS011;10326;53.660;10.200;2022-08-19T01:05:14;18.17;;;16.35;;
20336;SDS011;10326;53.660;10.200;2022-08-19T01:07:45;17.23;;;15.43;;
20336;SDS011;10326;53.660;10.200;2022-08-19T01:10:16;17.50;;;15.65;;
20336;SDS011;10326;53.660;10.200;2022-08-19T01:12:47;18.58;;;16.63;;
20336;SDS011;10326;53.660;10.200;2022-08-19T01:15:16;17.88;;;16.00;;
20336;SDS011;10326;53.660;10.200;2022-08-19T01:17:49;18.67;;;16.67;;
20336;SDS011;10326;53.660;10.200;2022-08-19T01:20:17;17.58;;;15.77;;
20336;SDS011;10326;53.660;10.200;2022-08-19T01:22:50;18.67;;;16.77;;
20336;SDS011;10326;53.660;10.200;2022-08-19T01:25:20;18.20;;;16.30;;
20336;SDS011;10326;53.660;10.200;2022-08-19T01:27:51;19.58;;;17.38;;
20336;SDS011;10326;53.660;10.200;2022-08-19T01:30:21;19.00;;;16.65;;
20336;SDS011;10326;53.660;10.200;2022-08-19T01:32:53;19.70;;;17.63;;
20336;SDS011;10326;53.660;10.200;2022-08-19T01:35:21;20.83;;;18.48;;
20336;SDS011;10326;53.660;10.200;2022-08-19T01:37:53;20.05;;;17.58;;
20336;SDS011;10326;53.660;10.200;2022-08-19T01:40:24;20.58;;;17.90;;
20336;SDS011;10326;53.660;10.200;2022-08-19T01:42:55;19.90;;;17.80;;
20336;SDS011;10326;53.660;10.200;2022-08-19T01:45:25;20.95;;;18.42;;
20336;SDS011;10326;53.660;10.200;2022-08-19T01:47:54;20.17;;;18.10;;
20336;SDS011;10326;53.660;10.200;2022-08-19T01:50:22;19.75;;;17.65;;
20336;SDS011;10326;53.660;10.200;2022-08-19T01:52:49;19.90;;;17.38;;
20336;SDS011;10326;53.660;10.200;2022-08-19T01:55:19;19.35;;;17.35;;
20336;SDS011;10326;53.660;10.200;2022-08-19T01:57:49;20.23;;;18.17;;
20336;SDS011;10326;53.660;10.200;2022-08-19T02:00:20;18.40;;;16.60;;
20336;SDS011;10326;53.660;10.200;2022-08-19T02:02:50;22.20;;;17.95;;
20336;SDS011;10326;53.660;10.200;2022-08-19T02:05:17;18.63;;;15.68;;
20336;SDS011;10326;53.660;10.200;2022-08-19T02:07:46;21.83;;;17.75;;
20336;SDS011;10326;53.660;10.200;2022-08-19T02:10:18;19.33;;;17.23;;
20336;SDS011;10326;53.660;10.200;2022-08-19T02:12:47;18.98;;;16.95;;
20336;SDS011;10326;53.660;10.200;2022-08-19T02:15:15;17.65;;;15.77;;
20336;SDS011;10326;53.660;10.200;2022-08-19T02:17:44;20.17;;;16.67;;
20336;SDS011;10326;53.660;10.200;2022-08-19T02:20:11;18.98;;;16.52;;
20336;SDS011;10326;53.660;10.200;2022-08-19T02:22:39;21.45;;;18.00;;
20336;SDS011;10326;53.660;10.200;2022-08-19T02:25:08;20.63;;;17.48;;
20336;SDS011;10326;53.660;10.200;2022-08-19T02:27:37;20.70;;;18.58;;
20336;SDS011;10326;53.660;10.200;2022-08-19T02:30:06;22.33;;;18.45;;
20336;SDS011;10326;53.660;10.200;2022-08-19T02:32:40;21.52;;;18.23;;
20336;SDS011;10326;53.660;10.200;2022-08-19T02:35:08;24.27;;;19.38;;
20336;SDS011;10326;53.660;10.200;2022-08-19T02:37:36;24.70;;;17.55;;
20336;SDS011;10326;53.660;10.200;2022-08-19T02:40:20;22.55;;;18.83;;
20336;SDS011;10326;53.660;10.200;2022-08-19T02:42:49;23.63;;;18.17;;
20336;SDS011;10326;53.660;10.200;2022-08-19T02:45:16;21.10;;;17.13;;
20336;SDS011;10326;53.660;10.200;2022-08-19T02:47:43;21.05;;;17.33;;
20336;SDS011;10326;53.660;10.200;2022-08-19T02:50:11;22.10;;;17.75;;
20336;SDS011;10326;53.660;10.200;2022-08-19T02:52:38;23.42;;;16.70;;
20336;SDS011;10326;53.660;10.200;2022-08-19T02:55:06;27.52;;;17.42;;
20336;SDS011;10326;53.660;10.200;2022-08-19T02:57:34;16.67;;;14.88;;
20336;SDS011;10326;53.660;10.200;2022-08-19T03:00:04;20.00;;;15.82;;
20336;SDS011;10326;53.660;10.200;2022-08-19T03:02:34;17.92;;;15.52;;
20336;SDS011;10326;53.660;10.200;2022-08-19T03:05:02;22.95;;;16.70;;
20336;SDS011;10326;53.660;10.200;2022-08-19T03:07:30;20.38;;;15.73;;
20336;SDS011;10326;53.660;10.200;2022-08-19T03:09:58;18.35;;;15.25;;
20336;SDS011;10326;53.660;10.200;2022-08-19T03:12:25;22.30;;;15.00;;
20336;SDS011;10326;53.660;10.200;2022-08-19T03:14:52;19.45;;;15.25;;
20336;SDS011;10326;53.660;10.200;2022-08-19T03:17:20;19.73;;;15.63;;
20336;SDS011;10326;53.660;10.200;2022-08-19T03:19:47;20.13;;;15.65;;
20336;SDS011;10326;53.660;10.200;2022-08-19T03:22:14;21.13;;;15.27;;
20336;SDS011;10326;53.660;10.200;2022-08-19T03:24:41;22.27;;;16.02;;
20336;SDS011;10326;53.660;10.200;2022-08-19T03:27:09;20.13;;;15.50;;
20336;SDS011;10326;53.660;10.200;2022-08-19T03:29:37;20.88;;;15.80;;
20336;SDS011;10326;53.660;10.200;2022-08-19T03:32:05;21.10;;;16.88;;
20336;SDS011;10326;53.660;10.200;2022-08-19T03:34:34;24.23;;;16.27;;
20336;SDS011;10326;53.660;10.200;2022-08-19T03:37:05;22.15;;;17.73;;
20336;SDS011;10326;53.660;10.200;2022-08-19T03:39:35;25.58;;;17.55;;
20336;SDS011;10326;53.660;10.200;2022-08-19T03:42:04;21.77;;;16.15;;
20336;SDS011;10326;53.660;10.200;2022-08-19T03:44:31;18.58;;;15.80;;
20336;SDS011;10326;53.660;10.200;2022-08-19T03:47:01;19.27;;;15.48;;
20336;SDS011;10326;53.660;10.200;2022-08-19T03:49:29;21.85;;;16.63;;
20336;SDS011;10326;53.660;10.200;2022-08-19T03:52:01;17.92;;;14.50;;
20336;SDS011;10326;53.660;10.200;2022-08-19T03:54:32;19.60;;;14.77;;
20336;SDS011;10326;53.660;10.200;2022-08-19T03:57:01;18.20;;;14.55;;
20336;SDS011;10326;53.660;10.200;2022-08-19T03:59:30;18.67;;;14.45;;
20336;SDS011;10326;53.660;10.200;2022-08-19T04:02:00;18.88;;;14.68;;
20336;SDS011;10326;53.660;10.200;2022-08-19T04:04:29;16.92;;;14.80;;
20336;SDS011;10326;53.660;10.200;2022-08-19T04:06:56;16.73;;;13.55;;
20336;SDS011;10326;53.660;10.200;2022-08-19T04:09:25;17.60;;;13.85;;
20336;SDS011;10326;53.660;10.200;2022-08-19T04:11:52;17.38;;;14.07;;
20336;SDS011;10326;53.660;10.200;2022-08-19T04:14:22;16.05;;;14.35;;
20336;SDS011;10326;53.660;10.200;2022-08-19T04:16:52;16.60;;;13.07;;
20336;SDS011;10326;53.660;10.200;2022-08-19T04:19:19;15.32;;;13.60;;
20336;SDS011;10326;53.660;10.200;2022-08-19T04:21:47;16.63;;;13.63;;
20336;SDS011;10326;53.660;10.200;2022-08-19T04:24:16;16.73;;;14.23;;
20336;SDS011;10326;53.660;10.200;2022-08-19T04:26:45;17.65;;;15.63;;
20336;SDS011;10326;53.660;10.200;2022-08-19T04:29:14;17.13;;;14.95;;
20336;SDS011;10326;53.660;10.200;2022-08-19T04:31:44;16.48;;;13.63;;
20336;SDS011;10326;53.660;10.200;2022-08-19T04:34:12;17.15;;;13.90;;
20336;SDS011;10326;53.660;10.200;2022-08-19T04:36:43;18.38;;;14.98;;
20336;SDS011;10326;53.660;10.200;2022-08-19T04:39:11;18.33;;;14.85;;
20336;SDS011;10326;53.660;10.200;2022-08-19T04:41:42;16.00;;;13.70;;
20336;SDS011;10326;53.660;10.200;2022-08-19T04:44:29;17.42;;;14.43;;
20336;SDS011;10326;53.660;10.200;2022-08-19T04:46:56;15.88;;;13.85;;
20336;SDS011;10326;53.660;10.200;2022-08-19T04:49:24;16.02;;;13.85;;
20336;SDS011;10326;53.660;10.200;2022-08-19T04:51:52;15.63;;;13.85;;
20336;SDS011;10326;53.660;10.200;2022-08-19T04:54:21;19.35;;;14.48;;
20336;SDS011;10326;53.660;10.200;2022-08-19T04:56:50;19.05;;;15.13;;
20336;SDS011;10326;53.660;10.200;2022-08-19T04:59:19;16.80;;;13.23;;
20336;SDS011;10326;53.660;10.200;2022-08-19T05:01:49;15.88;;;14.27;;
20336;SDS011;10326;53.660;10.200;2022-08-19T05:04:17;15.48;;;13.85;;
20336;SDS011;10326;53.660;10.200;2022-08-19T05:06:46;15.98;;;14.00;;
20336;SDS011;10326;53.660;10.200;2022-08-19T05:09:14;16.63;;;14.85;;
20336;SDS011;10326;53.660;10.200;2022-08-19T05:11:42;15.88;;;13.93;;
20336;SDS011;10326;53.660;10.200;2022-08-19T05:14:10;18.35;;;14.50;;
20336;SDS011;10326;53.660;10.200;2022-08-19T05:16:40;20.40;;;15.65;;
20336;SDS011;10326;53.660;10.200;2022-08-19T05:19:08;19.13;;;14.90;;
20336;SDS011;10326;53.660;10.200;2022-08-19T05:21:53;20.15;;;14.90;;
20336;SDS011;10326;53.660;10.200;2022-08-19T05:24:38;19.83;;;14.95;;
20336;SDS011;10326;53.660;10.200;2022-08-19T05:27:05;20.10;;;15.18;;
20336;SDS011;10326;53.660;10.200;2022-08-19T05:29:33;17.50;;;14.20;;
20336;SDS011;10326;53.660;10.200;2022-08-19T05:32:01;20.95;;;15.15;;
20336;SDS011;10326;53.660;10.200;2022-08-19T05:34:31;20.60;;;15.20;;
20336;SDS011;10326;53.660;10.200;2022-08-19T05:36:59;18.70;;;15.20;;
20336;SDS011;10326;53.660;10.200;2022-08-19T05:39:29;20.42;;;16.10;;
20336;SDS011;10326;53.660;10.200;2022-08-19T05:42:00;20.40;;;14.88;;
20336;SDS011;10326;53.660;10.200;2022-08-19T05:44:32;18.17;;;14.93;;
20336;SDS011;10326;53.660;10.200;2022-08-19T05:47:02;18.38;;;15.82;;
20336;SDS011;10326;53.660;10.200;2022-08-19T05:49:35;21.05;;;15.27;;
20336;SDS011;10326;53.660;10.200;2022-08-19T05:52:03;19.08;;;13.98;;
20336;SDS011;10326;53.660;10.200;2022-08-19T05:54:34;18.25;;;15.25;;
20336;SDS011;10326;53.660;10.200;2022-08-19T05:57:05;19.65;;;14.75;;
20336;SDS011;10326;53.660;10.200;2022-08-19T05:59:32;18.13;;;15.32;;
20336;SDS011;10326;53.660;10.200;2022-08-19T06:02:00;20.73;;;15.13;;
20336;SDS011;10326;53.660;10.200;2022-08-19T06:04:29;18.50;;;15.95;;
20336;SDS011;10326;53.660;10.200;2022-08-19T06:06:57;20.00;;;15.60;;
20336;SDS011;10326;53.660;10.200;2022-08-19T06:09:24;19.45;;;15.32;;
20336;SDS011;10326;53.660;10.200;2022-08-19T06:11:52;21.08;;;16.67;;
20336;SDS011;10326;53.660;10.200;2022-08-19T06:14:25;18.58;;;16.40;;
20336;SDS011;10326;53.660;10.200;2022-08-19T06:16:55;22.10;;;15.85;;
20336;SDS011;10326;53.660;10.200;2022-08-19T06:19:25;25.67;;;16.75;;
20336;SDS011;10326;53.660;10.200;2022-08-19T06:21:55;22.40;;;17.55;;
20336;SDS011;10326;53.660;10.200;2022-08-19T06:24:25;24.92;;;19.35;;
20336;SDS011;10326;53.660;10.200;2022-08-19T06:26:55;23.20;;;18.52;;
20336;SDS011;10326;53.660;10.200;2022-08-19T06:29:24;25.35;;;20.05;;
20336;SDS011;10326;53.660;10.200;2022-08-19T06:31:53;27.75;;;20.88;;
20336;SDS011;10326;53.660;10.200;2022-08-19T06:34:23;27.35;;;20.15;;
20336;SDS011;10326;53.660;10.200;2022-08-19T06:36:52;26.20;;;19.90;;
20336;SDS011;10326;53.660;10.200;2022-08-19T06:39:22;22.95;;;18.23;;
20336;SDS011;10326;53.660;10.200;2022-08-19T06:41:52;24.15;;;20.35;;
20336;SDS011;10326;53.660;10.200;2022-08-19T06:44:22;28.45;;;19.63;;
20336;SDS011;10326;53.660;10.200;2022-08-19T06:46:51;24.63;;;18.20;;
20336;SDS011;10326;53.660;10.200;2022-08-19T06:49:19;23.75;;;19.05;;
20336;SDS011;10326;53.660;10.200;2022-08-19T06:51:47;25.55;;;19.63;;
20336;SDS011;10326;53.660;10.200;2022-08-19T06:54:16;24.75;;;18.13;;
20336;SDS011;10326;53.660;10.200;2022-08-19T06:56:46;23.52;;;18.60;;
20336;SDS011;10326;53.660;10.200;2022-08-19T06:59:14;25.80;;;18.65;;
20336;SDS011;10326;53.660;10.200;2022-08-19T07:01:45;25.55;;;18.40;;
20336;SDS011;10326;53.660;10.200;2022-08-19T07:04:16;24.00;;;19.05;;
20336;SDS011;10326;53.660;10.200;2022-08-19T07:06:46;23.52;;;18.13;;
20336;SDS011;10326;53.660;10.200;2022-08-19T07:09:15;22.63;;;17.33;;
20336;SDS011;10326;53.660;10.200;2022-08-19T07:11:45;25.70;;;18.52;;
20336;SDS011;10326;53.660;10.200;2022-08-19T07:14:16;22.92;;;16.85;;
20336;SDS011;10326;53.660;10.200;2022-08-19T07:16:46;26.20;;;18.17;;
20336;SDS011;10326;53.660;10.200;2022-08-19T07:19:16;22.55;;;17.80;;
20336;SDS011;10326;53.660;10.200;2022-08-19T07:21:45;26.67;;;18.83;;
20336;SDS011;10326;53.660;10.200;2022-08-19T07:24:12;25.05;;;17.65;;
20336;SDS011;10326;53.660;10.200;2022-08-19T07:26:41;25.02;;;18.17;;
20336;SDS011;10326;53.660;10.200;2022-08-19T07:29:11;23.95;;;17.75;;
20336;SDS011;10326;53.660;10.200;2022-08-19T07:31:38;23.45;;;17.90;;
20336;SDS011;10326;53.660;10.200;2022-08-19T07:34:08;23.85;;;16.15;;
20336;SDS011;10326;53.660;10.200;2022-08-19T07:36:39;23.00;;;17.02;;
20336;SDS011;10326;53.660;10.200;2022-08-19T07:39:10;23.48;;;18.35;;
20336;SDS011;10326;53.660;10.200;2022-08-19T07:41:39;21.90;;;16.85;;
20336;SDS011;10326;53.660;10.200;2022-08-19T07:44:07;21.50;;;16.38;;
20336;SDS011;10326;53.660;10.200;2022-08-19T07:46:36;24.98;;;16.42;;
20336;SDS011;10326;53.660;10.200;2022-08-19T07:49:06;19.60;;;15.77;;
20336;SDS011;10326;53.660;10.200;2022-08-19T07:51:42;23.08;;;17.35;;
20336;SDS011;10326;53.660;10.200;2022-08-19T07:54:10;23.00;;;16.85;;
20336;SDS011;10326;53.660;10.200;2022-08-19T07:56:37;24.17;;;16.38;;
20336;SDS011;10326;53.660;10.200;2022-08-19T07:59:04;21.70;;;16.38;;
20336;SDS011;10326;53.660;10.200;2022-08-19T08:01:32;20.17;;;16.48;;
20336;SDS011;10326;53.660;10.200;2022-08-19T08:04:01;28.48;;;17.60;;
20336;SDS011;10326;53.660;10.200;2022-08-19T08:06:46;23.52;;;16.83;;
20336;SDS011;10326;53.660;10.200;2022-08-19T08:09:31;23.30;;;17.15;;
20336;SDS011;10326;53.660;10.200;2022-08-19T08:12:05;21.70;;;15.45;;
20336;SDS011;10326;53.660;10.200;2022-08-19T08:14:36;19.38;;;15.65;;
20336;SDS011;10326;53.660;10.200;2022-08-19T08:17:06;26.88;;;17.50;;
20336;SDS011;10326;53.660;10.200;2022-08-19T08:19:36;20.02;;;16.75;;
20336;SDS011;10326;53.660;10.200;2022-08-19T08:22:04;23.60;;;17.42;;
20336;SDS011;10326;53.660;10.200;2022-08-19T08:24:32;24.42;;;16.85;;
20336;SDS011;10326;53.660;10.200;2022-08-19T08:27:01;22.85;;;17.52;;
20336;SDS011;10326;53.660;10.200;2022-08-19T08:29:29;22.38;;;16.35;;
20336;SDS011;10326;53.660;10.200;2022-08-19T08:31:58;22.27;;;17.30;;
20336;SDS011;10326;53.660;10.200;2022-08-19T08:34:25;23.52;;;16.88;;
20336;SDS011;10326;53.660;10.200;2022-08-19T08:36:54;19.95;;;15.88;;
20336;SDS011;10326;53.660;10.200;2022-08-19T08:39:21;22.05;;;17.45;;
20336;SDS011;10326;53.660;10.200;2022-08-19T08:41:50;23.55;;;16.30;;
20336;SDS011;10326;53.660;10.200;2022-08-19T08:44:27;19.02;;;14.52;;
20336;SDS011;10326;53.660;10.200;2022-08-19T08:47:11;20.95;;;16.77;;
20336;SDS011;10326;53.660;10.200;2022-08-19T08:49:44;23.95;;;18.02;;
20336;SDS011;10326;53.660;10.200;2022-08-19T08:52:18;24.55;;;17.23;;
20336;SDS011;10326;53.660;10.200;2022-08-19T08:54:52;21.52;;;16.52;;
20336;SDS011;10326;53.660;10.200;2022-08-19T08:57:26;24.95;;;18.25;;
20336;SDS011;10326;53.660;10.200;2022-08-19T08:59:59;22.13;;;17.58;;
20336;SDS011;10326;53.660;10.200;2022-08-19T09:02:30;22.02;;;16.42;;
20336;SDS011;10326;53.660;10.200;2022-08-19T09:04:57;22.55;;;16.92;;
20336;SDS011;10326;53.660;10.200;2022-08-19T09:07:31;22.45;;;16.60;;
20336;SDS011;10326;53.660;10.200;2022-08-19T09:10:10;21.65;;;16.15;;
20336;SDS011;10326;53.660;10.200;2022-08-19T09:12:48;21.40;;;16.85;;
20336;SDS011;10326;53.660;10.200;2022-08-19T09:15:28;21.45;;;17.30;;
20336;SDS011;10326;53.660;10.200;2022-08-19T09:18:01;20.70;;;16.50;;
20336;SDS011;10326;53.660;10.200;2022-08-19T09:20:29;22.30;;;17.23;;
20336;SDS011;10326;53.660;10.200;2022-08-19T09:22:58;22.00;;;17.92;;
20336;SDS011;10326;53.660;10.200;2022-08-19T09:25:25;19.52;;;16.58;;
20336;SDS011;10326;53.660;10.200;2022-08-19T09:27:53;23.33;;;16.95;;
20336;SDS011;10326;53.660;10.200;2022-08-19T09:30:23;23.98;;;17.23;;
20336;SDS011;10326;53.660;10.200;2022-08-19T09:32:53;21.67;;;17.65;;
20336;SDS011;10326;53.660;10.200;2022-08-19T09:35:21;22.30;;;17.10;;
20336;SDS011;10326;53.660;10.200;2022-08-19T09:37:50;22.15;;;16.70;;
20336;SDS011;10326;53.660;10.200;2022-08-19T09:40:19;22.55;;;17.70;;
20336;SDS011;10326;53.660;10.200;2022-08-19T09:42:46;22.60;;;17.02;;
20336;SDS011;10326;53.660;10.200;2022-08-19T09:45:14;25.70;;;17.23;;
20336;SDS011;10326;53.660;10.200;2022-08-19T09:47:43;19.52;;;16.27;;
20336;SDS011;10326;53.660;10.200;2022-08-19T09:50:11;25.33;;;18.73;;
20336;SDS011;10326;53.660;10.200;2022-08-19T09:52:39;19.95;;;17.75;;
20336;SDS011;10326;53.660;10.200;2022-08-19T09:55:09;22.02;;;17.50;;
20336;SDS011;10326;53.660;10.200;2022-08-19T09:57:38;20.20;;;17.45;;
20336;SDS011;10326;53.660;10.200;2022-08-19T10:00:07;20.15;;;17.58;;
20336;SDS011;10326;53.660;10.200;2022-08-19T10:02:36;18.50;;;16.45;;
20336;SDS011;10326;53.660;10.200;2022-08-19T10:05:03;19.27;;;16.00;;
20336;SDS011;10326;53.660;10.200;2022-08-19T10:07:48;20.08;;;16.55;;
20336;SDS011;10326;53.660;10.200;2022-08-19T10:10:16;19.48;;;17.13;;
20336;SDS011;10326;53.660;10.200;2022-08-19T10:19:59;19.40;;;16.67;;
20336;SDS011;10326;53.660;10.200;2022-08-19T10:22:27;20.00;;;16.77;;
20336;SDS011;10326;53.660;10.200;2022-08-19T10:24:54;19.70;;;16.98;;
20336;SDS011;10326;53.660;10.200;2022-08-19T10:27:21;19.85;;;16.80;;
20336;SDS011;10326;53.660;10.200;2022-08-19T10:29:49;20.23;;;16.63;;
20336;SDS011;10326;53.660;10.200;2022-08-19T10:32:15;17.92;;;16.05;;
20336;SDS011;10326;53.660;10.200;2022-08-19T10:34:42;22.58;;;18.27;;
20336;SDS011;10326;53.660;10.200;2022-08-19T10:37:10;20.58;;;17.77;;
20336;SDS011;10326;53.660;10.200;2022-08-19T10:39:37;21.58;;;16.98;;
20336;SDS011;10326;53.660;10.200;2022-08-19T10:42:04;20.73;;;18.05;;
20336;SDS011;10326;53.660;10.200;2022-08-19T10:44:33;21.08;;;17.55;;
20336;SDS011;10326;53.660;10.200;2022-08-19T10:47:00;19.38;;;16.73;;
20336;SDS011;10326;53.660;10.200;2022-08-19T10:49:28;19.48;;;17.38;;
20336;SDS011;10326;53.660;10.200;2022-08-19T10:51:57;20.02;;;17.92;;
20336;SDS011;10326;53.660;10.200;2022-08-19T10:54:43;19.67;;;16.88;;
20336;SDS011;10326;53.660;10.200;2022-08-19T10:57:33;19.38;;;16.88;;
20336;SDS011;10326;53.660;10.200;2022-08-19T10:59:59;20.38;;;17.63;;
20336;SDS011;10326;53.660;10.200;2022-08-19T11:02:26;19.73;;;16.33;;
20336;SDS011;10326;53.660;10.200;2022-08-19T11:04:53;19.50;;;17.50;;
20336;SDS011;10326;53.660;10.200;2022-08-19T11:07:20;18.77;;;16.80;;
20336;SDS011;10326;53.660;10.200;2022-08-19T11:09:51;18.77;;;16.63;;
20336;SDS011;10326;53.660;10.200;2022-08-19T11:12:18;19.42;;;17.38;;
20336;SDS011;10326;53.660;10.200;2022-08-19T11:14:45;20.02;;;17.92;;
20336;SDS011;10326;53.660;10.200;2022-08-19T11:17:15;17.88;;;15.95;;
20336;SDS011;10326;53.660;10.200;2022-08-19T11:19:42;16.85;;;15.15;;
20336;SDS011;10326;53.660;10.200;2022-08-19T11:22:09;19.25;;;17.25;;
20336;SDS011;10326;53.660;10.200;2022-08-19T11:24:36;18.83;;;15.93;;
20336;SDS011;10326;53.660;10.200;2022-08-19T11:27:05;17.50;;;15.80;;
20336;SDS011;10326;53.660;10.200;2022-08-19T11:29:35;18.40;;;16.50;;
20336;SDS011;10326;53.660;10.200;2022-08-19T11:32:05;19.45;;;17.40;;
20336;SDS011;10326;53.660;10.200;2022-08-19T11:34:35;18.80;;;16.83;;
20336;SDS011;10326;53.660;10.200;2022-08-19T11:37:04;18.55;;;16.63;;
20336;SDS011;10326;53.660;10.200;2022-08-19T11:39:32;18.13;;;16.20;;
20336;SDS011;10326;53.660;10.200;2022-08-19T11:42:02;17.50;;;15.70;;
20336;SDS011;10326;53.660;10.200;2022-08-19T11:44:52;16.63;;;14.93;;
20336;SDS011;10326;53.660;10.200;2022-08-19T11:47:19;18.13;;;16.40;;
20336;SDS011;10326;53.660;10.200;2022-08-19T11:49:47;18.80;;;16.35;;
20336;SDS011;10326;53.660;10.200;2022-08-19T11:52:14;16.52;;;14.82;;
20336;SDS011;10326;53.660;10.200;2022-08-19T11:54:41;17.75;;;15.60;;
20336;SDS011;10326;53.660;10.200;2022-08-19T11:57:09;16.25;;;14.60;;
20336;SDS011;10326;53.660;10.200;2022-08-19T11:59:36;15.38;;;13.88;;
20336;SDS011;10326;53.660;10.200;2022-08-19T12:02:03;17.23;;;14.93;;
20336;SDS011;10326;53.660;10.200;2022-08-19T12:04:30;19.30;;;17.30;;
20336;SDS011;10326;53.660;10.200;2022-08-19T12:06:56;19.42;;;17.45;;
20336;SDS011;10326;53.660;10.200;2022-08-19T12:09:23;19.02;;;16.33;;
20336;SDS011;10326;53.660;10.200;2022-08-19T12:11:50;18.35;;;16.63;;
20336;SDS011;10326;53.660;10.200;2022-08-19T12:14:19;17.50;;;15.80;;
20336;SDS011;10326;53.660;10.200;2022-08-19T12:16:46;17.98;;;16.25;;
20336;SDS011;10326;53.660;10.200;2022-08-19T12:19:13;18.35;;;16.45;;
20336;SDS011;10326;53.660;10.200;2022-08-19T12:21:40;19.90;;;17.75;;
20336;SDS011;10326;53.660;10.200;2022-08-19T12:24:07;20.98;;;17.63;;
20336;SDS011;10326;53.660;10.200;2022-08-19T12:26:34;21.08;;;18.75;;
20336;SDS011;10326;53.660;10.200;2022-08-19T12:29:01;18.92;;;17.02;;
20336;SDS011;10326;53.660;10.200;2022-08-19T12:31:31;19.00;;;17.00;;
20336;SDS011;10326;53.660;10.200;2022-08-19T12:33:58;20.08;;;17.85;;
20336;SDS011;10326;53.660;10.200;2022-08-19T12:36:27;20.50;;;18.40;;
20336;SDS011;10326;53.660;10.200;2022-08-19T12:38:55;18.10;;;16.35;;
20336;SDS011;10326;53.660;10.200;2022-08-19T12:41:24;18.02;;;16.20;;
20336;SDS011;10326;53.660;10.200;2022-08-19T12:43:52;19.27;;;17.42;;
20336;SDS011;10326;53.660;10.200;2022-08-19T12:46:19;20.33;;;17.30;;
20336;SDS011;10326;53.660;10.200;2022-08-19T12:48:47;18.17;;;16.38;;
20336;SDS011;10326;53.660;10.200;2022-08-19T12:51:17;17.58;;;15.88;;
20336;SDS011;10326;53.660;10.200;2022-08-19T12:53:45;18.52;;;16.60;;
20336;SDS011;10326;53.660;10.200;2022-08-19T12:56:12;19.52;;;17.67;;
20336;SDS011;10326;53.660;10.200;2022-08-19T12:58:40;17.00;;;15.30;;
20336;SDS011;10326;53.660;10.200;2022-08-19T13:01:09;17.08;;;15.55;;
20336;SDS011;10326;53.660;10.200;2022-08-19T13:03:38;17.40;;;15.73;;
20336;SDS011;10326;53.660;10.200;2022-08-19T13:06:07;18.48;;;16.63;;
20336;SDS011;10326;53.660;10.200;2022-08-19T13:08:35;16.63;;;15.05;;
20336;SDS011;10326;53.660;10.200;2022-08-19T13:11:06;16.63;;;15.00;;
20336;SDS011;10326;53.660;10.200;2022-08-19T13:13:37;16.40;;;14.80;;
20336;SDS011;10326;53.660;10.200;2022-08-19T13:16:06;14.52;;;13.13;;
20336;SDS011;10326;53.660;10.200;2022-08-19T13:18:34;14.15;;;12.65;;
20336;SDS011;10326;53.660;10.200;2022-08-19T13:21:02;13.77;;;12.57;;
20336;SDS011;10326;53.660;10.200;2022-08-19T13:23:32;15.85;;;14.27;;
20336;SDS011;10326;53.660;10.200;2022-08-19T13:26:01;15.00;;;13.57;;
20336;SDS011;10326;53.660;10.200;2022-08-19T13:28:30;14.75;;;13.35;;
20336;SDS011;10326;53.660;10.200;2022-08-19T13:31:14;14.02;;;12.73;;
20336;SDS011;10326;53.660;10.200;2022-08-19T13:33:59;13.32;;;12.10;;
20336;SDS011;10326;53.660;10.200;2022-08-19T13:36:26;14.85;;;13.40;;
20336;SDS011;10326;53.660;10.200;2022-08-19T13:38:54;13.95;;;12.65;;
20336;SDS011;10326;53.660;10.200;2022-08-19T13:41:22;15.15;;;13.77;;
20336;SDS011;10326;53.660;10.200;2022-08-19T13:43:49;14.88;;;13.48;;
20336;SDS011;10326;53.660;10.200;2022-08-19T13:46:16;14.38;;;13.00;;
20336;SDS011;10326;53.660;10.200;2022-08-19T13:48:44;15.52;;;13.88;;
20336;SDS011;10326;53.660;10.200;2022-08-19T13:51:13;15.45;;;14.05;;
20336;SDS011;10326;53.660;10.200;2022-08-19T13:53:41;14.68;;;13.27;;
20336;SDS011;10326;53.660;10.200;2022-08-19T13:56:11;14.45;;;13.05;;
20336;SDS011;10326;53.660;10.200;2022-08-19T13:58:40;13.30;;;12.15;;
20336;SDS011;10326;53.660;10.200;2022-08-19T14:01:07;11.93;;;10.82;;
20336;SDS011;10326;53.660;10.200;2022-08-19T14:03:34;12.82;;;11.60;;
20336;SDS011;10326;53.660;10.200;2022-08-19T14:06:02;12.07;;;10.93;;
20336;SDS011;10326;53.660;10.200;2022-08-19T14:08:29;14.57;;;13.23;;
20336;SDS011;10326;53.660;10.200;2022-08-19T14:10:57;13.40;;;12.25;;
20336;SDS011;10326;53.660;10.200;2022-08-19T14:13:26;12.80;;;11.60;;
20336;SDS011;10326;53.660;10.200;2022-08-19T14:15:53;11.27;;;10.38;;
20336;SDS011;10326;53.660;10.200;2022-08-19T14:18:20;12.93;;;11.82;;
20336;SDS011;10326;53.660;10.200;2022-08-19T14:20:47;12.52;;;11.52;;
20336;SDS011;10326;53.660;10.200;2022-08-19T14:23:14;11.98;;;10.98;;
20336;SDS011;10326;53.660;10.200;2022-08-19T14:25:41;12.23;;;11.13;;
20336;SDS011;10326;53.660;10.200;2022-08-19T14:28:09;12.13;;;11.00;;